createdAt,value
2023-02-06T08:12:35.415Z,2.00
2023-02-06T08:15:02.497Z,1.80
2023-02-06T08:17:29.623Z,2.00
2023-02-06T08:19:56.798Z,2.00
2023-02-06T08:22:23.842Z,2.30
2023-02-06T08:24:50.863Z,2.30
2023-02-06T08:27:17.900Z,2.30
2023-02-06T08:29:45.049Z,2.50
2023-02-06T08:32:12.503Z,2.60
2023-02-06T08:34:40.677Z,2.40
2023-02-06T08:37:07.934Z,2.70
2023-02-06T08:39:34.955Z,3.00
2023-02-06T08:42:02.433Z,3.00
2023-02-06T08:44:29.559Z,3.10
2023-02-06T08:47:09.341Z,3.00
2023-02-06T08:49:37.805Z,3.20
2023-02-06T08:52:05.479Z,3.20
2023-02-06T08:54:35.238Z,3.30
2023-02-06T08:57:03.831Z,3.30
2023-02-06T08:59:31.204Z,3.30
2023-02-06T09:01:58.507Z,3.50
2023-02-06T09:04:25.684Z,3.30
2023-02-06T09:06:53.197Z,3.50
2023-02-06T09:09:20.284Z,3.40
2023-02-06T09:11:47.944Z,3.50
2023-02-06T09:14:17.210Z,3.70
2023-02-06T09:16:44.600Z,3.60
2023-02-06T09:19:11.665Z,3.60
2023-02-06T09:21:40.055Z,3.50
2023-02-06T09:24:09.444Z,3.30
2023-02-06T09:26:58.193Z,3.20
2023-02-06T09:29:31.202Z,3.30
2023-02-06T09:31:58.563Z,3.40
2023-02-06T09:34:26.588Z,3.60
2023-02-06T09:36:57.998Z,3.90
2023-02-06T09:39:26.098Z,3.80
2023-02-06T09:42:04.614Z,4.20
2023-02-06T09:44:42.636Z,4.30
2023-02-06T09:47:36.165Z,4.40
2023-02-06T09:50:13.596Z,4.80
2023-02-06T09:53:02.192Z,5.80
2023-02-06T09:55:49.628Z,6.00
2023-02-06T09:58:38.166Z,5.40
2023-02-06T10:01:28.952Z,5.50
2023-02-06T10:04:10.213Z,5.40
2023-02-06T10:06:49.324Z,5.00
2023-02-06T10:09:22.358Z,4.40
2023-02-06T10:12:03.529Z,4.60
2023-02-06T10:14:54.811Z,4.30
2023-02-06T10:17:30.329Z,4.30
2023-02-06T10:20:11.315Z,4.40
2023-02-06T10:23:02.740Z,4.50
2023-02-06T10:25:31.999Z,4.10
2023-02-06T10:28:08.574Z,3.90
2023-02-06T10:30:38.584Z,4.00
2023-02-06T10:33:25.586Z,4.30
2023-02-06T10:36:21.930Z,4.20
2023-02-06T10:39:29.178Z,4.30
2023-02-06T10:41:56.310Z,4.10
2023-02-06T10:44:27.683Z,3.90
2023-02-06T10:46:57.680Z,4.00
2023-02-06T10:49:34.078Z,4.10
2023-02-06T10:52:32.190Z,4.10
2023-02-06T10:55:12.249Z,4.20
2023-02-06T10:57:41.626Z,4.00
2023-02-06T11:00:22.398Z,4.00
2023-02-06T11:03:07.057Z,3.80
2023-02-06T11:05:35.825Z,3.50
2023-02-06T11:08:15.985Z,3.50
2023-02-06T11:10:43.021Z,3.50
2023-02-06T11:13:35.450Z,3.60
2023-02-06T11:16:16.943Z,3.80
2023-02-06T11:18:46.409Z,3.70
2023-02-06T11:21:15.581Z,3.80
2023-02-06T11:23:43.445Z,3.70
2023-02-06T11:26:15.301Z,3.70
2023-02-06T11:28:57.804Z,3.50
2023-02-06T11:31:54.165Z,3.30
2023-02-06T11:34:46.423Z,3.20
2023-02-06T11:37:52.126Z,3.50
2023-02-06T11:40:19.257Z,3.60
2023-02-06T11:42:48.885Z,3.40
2023-02-06T18:38:43.722Z,1.70
2023-02-06T18:41:30.656Z,1.70
2023-02-06T18:44:08.359Z,1.80
2023-02-06T18:46:35.875Z,1.90
2023-02-06T18:49:02.926Z,1.70
2023-02-06T18:51:30.886Z,1.80
2023-02-06T18:53:58.525Z,1.70
2023-02-06T18:56:26.610Z,1.80
2023-02-06T18:58:53.535Z,1.80
2023-02-06T19:01:25.910Z,2.10
2023-02-06T19:03:54.109Z,2.00
2023-02-06T19:06:35.389Z,2.20
2023-02-06T19:09:08.568Z,2.00
2023-02-06T19:11:36.646Z,2.20
2023-02-06T19:14:04.934Z,2.10
2023-02-06T19:16:32.894Z,1.90
2023-02-06T19:19:00.764Z,2.10
2023-02-06T19:21:28.403Z,2.10
2023-02-06T19:24:00.143Z,2.10
2023-02-06T19:26:28.408Z,2.30
2023-02-06T19:28:56.289Z,2.20
2023-02-06T19:31:26.549Z,2.00
2023-02-06T19:33:59.766Z,2.00
2023-02-06T19:36:28.926Z,1.90
2023-02-06T19:38:58.625Z,1.90
2023-02-06T19:41:28.549Z,1.80
2023-02-06T19:43:57.208Z,1.70
2023-02-06T19:46:26.406Z,1.70
2023-02-06T19:48:54.645Z,1.50
2023-02-06T19:51:30.128Z,1.80
2023-02-06T19:53:58.673Z,1.70
2023-02-06T19:56:34.642Z,1.70
2023-02-06T19:59:04.370Z,1.60
2023-02-06T20:01:31.987Z,1.50
2023-02-06T20:04:00.862Z,1.50
2023-02-06T20:06:30.786Z,1.60
2023-02-06T20:08:57.815Z,1.30
2023-02-06T20:11:24.926Z,1.50
2023-02-06T20:13:56.645Z,1.40
2023-02-06T20:16:26.534Z,1.40
2023-02-06T20:18:55.034Z,1.30
2023-02-06T20:21:27.931Z,1.20
2023-02-06T20:23:57.421Z,1.40
2023-02-06T20:26:26.723Z,1.30
2023-02-06T20:28:54.230Z,1.50
2023-02-06T20:31:21.846Z,1.60
2023-02-06T20:33:49.516Z,1.70
2023-02-06T20:36:22.526Z,1.50
2023-02-06T20:38:51.476Z,1.40
2023-02-06T20:41:22.070Z,1.40
2023-02-06T20:43:49.011Z,1.60
2023-02-06T20:46:17.552Z,1.50
2023-02-06T20:48:46.234Z,1.60
2023-02-06T20:51:14.420Z,1.40
2023-02-06T20:53:41.613Z,1.60
2023-02-06T20:56:20.086Z,1.40
2023-02-06T20:58:53.303Z,1.50
2023-02-06T21:01:28.182Z,1.50
2023-02-06T21:03:58.051Z,1.50
2023-02-06T21:06:25.866Z,1.40
2023-02-06T21:08:57.416Z,1.70
2023-02-06T21:11:29.375Z,1.80
2023-02-06T21:14:03.232Z,1.50
2023-02-06T21:16:31.666Z,1.50
2023-02-06T21:18:59.525Z,1.90
2023-02-06T21:21:26.950Z,1.70
2023-02-06T21:23:57.777Z,2.00
2023-02-06T21:26:26.431Z,1.80
2023-02-06T21:28:53.838Z,1.70
2023-02-06T21:31:24.292Z,1.90
2023-02-06T21:33:52.772Z,1.90
2023-02-06T21:36:21.238Z,1.80
2023-02-06T21:38:48.324Z,1.90
2023-02-06T21:41:19.182Z,1.90
2023-02-06T21:43:46.198Z,1.90
2023-02-06T21:46:13.565Z,1.90
2023-02-06T21:48:41.606Z,2.10
2023-02-06T21:51:12.385Z,2.00
2023-02-06T21:53:40.317Z,2.00
2023-02-06T21:56:19.776Z,2.20
2023-02-06T21:58:47.630Z,2.00
2023-02-06T22:01:29.636Z,1.80
2023-02-06T22:03:57.389Z,1.90
2023-02-06T22:06:24.752Z,2.10
2023-02-06T22:08:54.859Z,2.20
2023-02-06T22:11:29.273Z,2.20
2023-02-06T22:14:02.180Z,2.20
2023-02-06T22:16:29.508Z,2.30
2023-02-06T22:18:57.809Z,2.10
2023-02-06T22:21:26.942Z,2.40
2023-02-06T22:23:57.027Z,2.20
2023-02-06T22:26:24.995Z,2.20
2023-02-06T22:28:51.896Z,2.30
2023-02-06T22:31:22.604Z,2.30
2023-02-06T22:33:51.010Z,2.30
2023-02-06T22:36:20.681Z,2.50
2023-02-06T22:38:48.493Z,2.40
2023-02-06T22:41:16.910Z,2.30
2023-02-06T22:43:45.576Z,2.40
2023-02-06T22:46:25.264Z,2.30
2023-02-06T22:48:53.844Z,2.30
2023-02-06T22:51:23.541Z,2.50
2023-02-06T22:53:50.759Z,2.60
2023-02-06T22:56:31.327Z,2.50
2023-02-06T22:59:03.317Z,2.40
2023-02-06T23:01:36.958Z,2.50
2023-02-06T23:04:07.729Z,2.20
2023-02-06T23:06:36.962Z,2.40
2023-02-06T23:09:06.325Z,2.20
2023-02-06T23:11:34.381Z,2.40
2023-02-06T23:14:03.424Z,2.40
2023-02-06T23:16:32.101Z,2.40
2023-02-06T23:19:02.090Z,2.30
2023-02-06T23:21:29.111Z,2.40
2023-02-06T23:23:57.123Z,2.30
2023-02-06T23:26:25.349Z,2.30
2023-02-06T23:28:58.144Z,2.20
2023-02-06T23:31:27.461Z,2.20
2023-02-06T23:33:55.035Z,2.00
2023-02-06T23:36:24.456Z,2.20
2023-02-06T23:38:52.505Z,2.00
2023-02-06T23:41:23.416Z,1.80
2023-02-06T23:43:58.631Z,1.80
2023-02-06T23:46:26.786Z,1.60
2023-02-06T23:48:54.276Z,1.70
2023-02-06T23:51:22.625Z,1.40
2023-02-06T23:53:49.651Z,1.40
2023-02-06T23:56:19.643Z,1.20
2023-02-06T23:58:46.704Z,0.90
